createdAt,value
2018-08-12T00:03:03.220Z,11.58
2018-08-12T00:08:00.793Z,11.76
2018-08-12T00:12:58.324Z,11.79
2018-08-12T00:17:55.825Z,11.91
2018-08-12T00:22:53.348Z,11.82
2018-08-12T00:27:50.877Z,11.93
2018-08-12T00:32:48.402Z,12.16
2018-08-12T00:37:45.940Z,12.12
2018-08-12T00:42:43.968Z,12.14
2018-08-12T00:47:41.523Z,12.08
2018-08-12T00:52:39.114Z,12.23
2018-08-12T00:57:36.742Z,12.30
2018-08-12T01:02:34.313Z,12.20
2018-08-12T01:07:31.797Z,12.04
2018-08-12T01:12:29.286Z,11.96
2018-08-12T01:17:26.824Z,11.85
2018-08-12T01:22:24.362Z,11.88
2018-08-12T01:27:21.891Z,11.69
2018-08-12T01:32:19.424Z,11.71
2018-08-12T01:37:16.964Z,11.81
2018-08-12T01:42:14.480Z,11.82
2018-08-12T01:47:11.982Z,11.71
2018-08-12T01:52:09.525Z,11.62
2018-08-12T01:57:07.048Z,11.68
2018-08-12T02:02:04.659Z,11.49
2018-08-12T02:07:02.265Z,11.34
2018-08-12T02:11:59.784Z,11.16
2018-08-12T02:16:57.257Z,11.03
2018-08-12T02:21:54.782Z,11.01
2018-08-12T02:26:52.318Z,10.93
2018-08-12T02:31:49.813Z,10.84
2018-08-12T02:36:47.304Z,11.60
2018-08-12T02:41:44.778Z,11.28
2018-08-12T02:46:42.361Z,11.17
2018-08-12T02:51:39.910Z,11.19
2018-08-12T02:56:37.485Z,11.42
2018-08-12T03:01:35.066Z,11.58
2018-08-12T03:06:32.572Z,11.21
2018-08-12T03:11:30.062Z,11.35
2018-08-12T03:16:27.558Z,11.28
2018-08-12T03:21:25.093Z,10.91
2018-08-12T03:26:22.594Z,10.65
2018-08-12T03:31:20.139Z,11.05
2018-08-12T03:36:17.650Z,11.09
2018-08-12T03:41:15.152Z,10.62
2018-08-12T03:46:12.670Z,10.31
2018-08-12T03:51:10.237Z,10.64
2018-08-12T03:56:07.762Z,10.58
2018-08-12T04:01:06.077Z,10.22
2018-08-12T04:06:03.640Z,10.37
2018-08-12T04:11:01.168Z,10.05
2018-08-12T04:15:58.735Z,10.63
2018-08-12T04:20:56.269Z,10.68
2018-08-12T04:25:53.808Z,10.69
2018-08-12T04:30:51.331Z,10.45
2018-08-12T04:35:48.827Z,10.40
2018-08-12T04:40:46.342Z,10.72
2018-08-12T04:45:43.833Z,11.05
2018-08-12T04:50:41.363Z,10.91
2018-08-12T04:55:38.838Z,10.84
2018-08-12T05:00:36.486Z,11.01
2018-08-12T05:05:34.015Z,11.30
2018-08-12T05:10:31.516Z,11.34
2018-08-12T05:15:29.101Z,11.70
2018-08-12T05:20:26.638Z,12.10
2018-08-12T05:25:24.242Z,11.92
2018-08-12T05:30:21.761Z,13.41
2018-08-12T05:35:19.286Z,13.69
2018-08-12T05:40:16.791Z,16.70
2018-08-12T05:45:14.336Z,18.10
2018-08-12T05:50:11.904Z,17.66
2018-08-12T05:55:09.475Z,16.92
2018-08-12T06:00:09.738Z,16.90
2018-08-12T06:05:07.558Z,16.76
2018-08-12T06:10:05.642Z,17.03
2018-08-12T06:15:03.858Z,17.53
2018-08-12T06:20:02.431Z,17.63
2018-08-12T06:24:59.941Z,17.22
2018-08-12T06:29:57.497Z,17.32
2018-08-12T06:34:54.982Z,17.53
2018-08-12T06:39:52.588Z,17.81
2018-08-12T06:44:50.119Z,17.96
2018-08-12T06:49:48.654Z,18.26
2018-08-12T06:54:46.181Z,18.18
2018-08-12T06:59:43.714Z,18.29
2018-08-12T07:04:41.373Z,18.50
2018-08-12T07:09:38.912Z,18.52
2018-08-12T07:14:36.449Z,18.82
2018-08-12T07:19:39.139Z,18.97
2018-08-12T07:24:36.692Z,19.37
2018-08-12T07:29:34.248Z,19.52
2018-08-12T07:34:31.790Z,19.90
2018-08-12T07:39:29.349Z,19.33
2018-08-12T07:44:26.851Z,19.79
2018-08-12T07:49:31.920Z,20.35
2018-08-12T07:54:29.527Z,20.23
2018-08-12T07:59:27.016Z,21.10
2018-08-12T08:04:24.558Z,21.29
2018-08-12T08:09:22.111Z,21.51
2018-08-12T08:14:19.629Z,21.78
2018-08-12T08:19:25.856Z,21.98
2018-08-12T08:24:23.428Z,21.82
2018-08-12T08:29:20.954Z,22.61
2018-08-12T08:34:18.501Z,22.31
2018-08-12T08:39:16.011Z,22.76
2018-08-12T08:44:13.596Z,22.42
2018-08-12T08:49:11.129Z,21.73
2018-08-12T08:54:08.669Z,22.96
2018-08-12T08:59:06.210Z,22.88
2018-08-12T09:04:03.929Z,23.37
2018-08-12T09:09:01.671Z,22.73
2018-08-12T09:13:58.998Z,23.16
2018-08-12T09:18:56.530Z,22.87
2018-08-12T09:23:54.080Z,23.23
2018-08-12T09:28:51.582Z,23.59
2018-08-12T09:33:49.069Z,24.14
2018-08-12T09:38:46.587Z,23.66
2018-08-12T09:43:44.155Z,25.01
2018-08-12T09:48:41.691Z,24.34
2018-08-12T09:53:39.205Z,23.42
2018-08-12T09:58:36.869Z,23.38
2018-08-12T10:03:34.458Z,24.50
2018-08-12T10:08:31.962Z,25.47
2018-08-12T10:13:30.036Z,26.30
2018-08-12T10:18:27.614Z,26.42
2018-08-12T10:23:25.270Z,26.32
2018-08-12T10:28:25.034Z,26.23
2018-08-12T10:33:22.691Z,26.34
2018-08-12T10:38:20.327Z,27.02
2018-08-12T10:43:17.852Z,27.05
2018-08-12T10:48:15.620Z,27.46
2018-08-12T10:53:13.485Z,27.56
2018-08-12T10:58:11.135Z,26.57
2018-08-12T11:03:08.758Z,26.96
2018-08-12T11:08:06.655Z,27.61
2018-08-12T11:13:04.304Z,27.01
2018-08-12T11:18:01.931Z,25.62
2018-08-12T11:22:59.535Z,26.75
2018-08-12T11:27:57.170Z,27.78
2018-08-12T11:32:54.795Z,26.14
2018-08-12T11:37:52.399Z,25.55
2018-08-12T11:42:49.961Z,25.56
2018-08-12T11:47:48.364Z,25.86
2018-08-12T11:52:46.401Z,26.81
2018-08-12T11:57:44.024Z,25.75
2018-08-12T12:02:41.673Z,25.43
2018-08-12T12:07:39.878Z,27.59
2018-08-12T12:12:37.706Z,28.36
2018-08-12T12:17:35.449Z,28.51
2018-08-12T12:22:32.962Z,28.62
2018-08-12T12:27:30.577Z,29.03
2018-08-12T12:32:28.499Z,26.39
2018-08-12T12:37:26.034Z,27.72
2018-08-12T12:42:23.574Z,28.44
2018-08-12T12:47:21.183Z,28.71
2018-08-12T12:52:18.905Z,28.21
2018-08-12T12:57:16.440Z,27.81
2018-08-12T13:02:14.035Z,26.68
2018-08-12T13:07:11.558Z,27.03
2018-08-12T13:12:09.111Z,28.60
2018-08-12T13:17:06.639Z,28.98
2018-08-12T13:22:04.222Z,29.31
2018-08-12T13:27:01.771Z,28.57
2018-08-12T13:31:59.347Z,29.12
2018-08-12T13:36:56.959Z,29.19
2018-08-12T13:41:54.478Z,28.90
2018-08-12T13:46:52.037Z,29.19
2018-08-12T13:51:49.606Z,29.55
2018-08-12T13:56:47.133Z,29.26
2018-08-12T14:01:44.780Z,28.67
2018-08-12T14:06:42.281Z,29.64
2018-08-12T14:11:39.798Z,28.07
2018-08-12T14:16:37.367Z,29.22
2018-08-12T14:21:35.577Z,29.44
2018-08-12T14:26:33.205Z,29.09
2018-08-12T14:31:30.759Z,29.02
2018-08-12T14:36:28.289Z,29.71
2018-08-12T14:41:25.871Z,29.35
2018-08-12T14:46:23.398Z,29.08
2018-08-12T14:51:20.966Z,29.86
2018-08-12T14:56:18.519Z,30.14
2018-08-12T15:01:16.152Z,29.83
2018-08-12T15:06:13.749Z,29.70
2018-08-12T15:11:11.272Z,29.24
2018-08-12T15:16:08.886Z,29.64
2018-08-12T15:21:06.613Z,30.01
2018-08-12T15:26:04.214Z,30.53
2018-08-12T15:31:01.768Z,29.70
2018-08-12T15:35:59.286Z,28.87
2018-08-12T15:40:57.204Z,29.43
2018-08-12T15:45:54.754Z,29.55
2018-08-12T15:50:52.612Z,29.79
2018-08-12T15:55:50.121Z,29.39
2018-08-12T16:00:47.677Z,29.61
2018-08-12T16:05:45.298Z,30.00
2018-08-12T16:10:43.011Z,29.62
2018-08-12T16:15:40.646Z,28.64
2018-08-12T16:20:38.190Z,28.37
2018-08-12T16:25:35.748Z,29.19
2018-08-12T16:30:33.381Z,29.43
2018-08-12T16:35:31.018Z,29.64
2018-08-12T16:40:28.575Z,29.02
2018-08-12T16:45:26.126Z,28.96
2018-08-12T16:50:23.709Z,28.95
2018-08-12T16:55:21.245Z,29.42
2018-08-12T17:00:20.357Z,30.40
2018-08-12T17:05:20.132Z,30.41
2018-08-12T17:10:18.278Z,30.57
2018-08-12T17:15:18.890Z,30.41
2018-08-12T17:20:18.744Z,29.79
2018-08-12T17:25:16.323Z,29.42
2018-08-12T17:30:15.048Z,29.29
2018-08-12T17:35:14.644Z,30.22
2018-08-12T17:40:13.363Z,30.27
2018-08-12T17:45:12.039Z,30.13
2018-08-12T17:50:12.358Z,29.76
2018-08-12T17:55:09.928Z,29.77
2018-08-12T18:00:09.579Z,30.05
2018-08-12T18:05:07.603Z,29.06
2018-08-12T18:10:05.501Z,27.93
2018-08-12T18:15:03.347Z,27.00
2018-08-12T18:20:01.947Z,26.43
2018-08-12T18:24:59.484Z,26.00
2018-08-12T18:29:57.047Z,26.23
2018-08-12T18:34:54.590Z,25.04
2018-08-12T18:39:52.122Z,24.31
2018-08-12T18:44:49.652Z,23.77
2018-08-12T18:49:48.166Z,23.18
2018-08-12T18:54:45.693Z,22.74
2018-08-12T18:59:43.252Z,22.39
2018-08-12T19:04:40.963Z,21.94
2018-08-12T19:09:38.483Z,21.50
2018-08-12T19:14:35.992Z,21.18
2018-08-12T19:19:40.658Z,20.91
2018-08-12T19:24:38.242Z,20.75
2018-08-12T19:29:35.749Z,20.61
2018-08-12T19:34:33.278Z,20.99
2018-08-12T19:39:30.786Z,20.80
2018-08-12T19:44:28.308Z,20.51
2018-08-12T19:49:35.753Z,20.34
2018-08-12T19:54:33.287Z,20.09
2018-08-12T19:59:30.782Z,19.94
2018-08-12T20:04:28.381Z,19.71
2018-08-12T20:09:25.871Z,19.91
2018-08-12T20:14:23.400Z,19.84
2018-08-12T20:24:29.031Z,19.40
2018-08-12T20:29:26.542Z,19.30
2018-08-12T20:34:24.045Z,19.11
2018-08-12T20:39:21.628Z,18.93
2018-08-12T20:44:19.163Z,18.91
2018-08-12T20:49:21.738Z,18.82
2018-08-12T20:54:19.430Z,18.74
2018-08-12T20:59:16.911Z,18.63
2018-08-12T21:04:14.528Z,18.45
2018-08-12T21:09:12.022Z,18.35
2018-08-12T21:14:09.567Z,18.27
2018-08-12T21:19:09.456Z,18.12
2018-08-12T21:24:07.006Z,18.49
2018-08-12T21:29:04.761Z,17.90
2018-08-12T21:34:02.260Z,17.93
2018-08-12T21:38:59.815Z,17.78
2018-08-12T21:43:57.301Z,17.63
2018-08-12T21:48:54.794Z,17.60
2018-08-12T21:53:52.282Z,17.49
2018-08-12T21:58:49.809Z,17.59
2018-08-12T22:03:47.363Z,17.29
2018-08-12T22:08:44.935Z,17.17
2018-08-12T22:13:42.413Z,17.21
2018-08-12T22:18:39.909Z,17.31
2018-08-12T22:23:37.434Z,17.08
2018-08-12T22:28:34.924Z,17.02
2018-08-12T22:33:32.405Z,17.03
2018-08-12T22:38:30.749Z,16.91
2018-08-12T22:43:28.435Z,16.84
2018-08-12T22:48:25.947Z,16.91
2018-08-12T22:53:23.447Z,17.02
2018-08-12T22:58:21.095Z,17.11
2018-08-12T23:03:18.640Z,16.88
2018-08-12T23:08:16.116Z,16.88
2018-08-12T23:13:13.593Z,16.92
2018-08-12T23:18:11.085Z,16.78
2018-08-12T23:23:08.577Z,16.48
2018-08-12T23:28:06.054Z,16.68
2018-08-12T23:33:03.626Z,16.53
2018-08-12T23:38:01.122Z,16.85
2018-08-12T23:42:58.608Z,16.58
2018-08-12T23:47:56.075Z,16.53
2018-08-12T23:52:53.559Z,16.43
2018-08-12T23:57:51.037Z,16.81
